CDT,Max TemperatureF,Mean TemperatureF,Min TemperatureF,Max Dew PointF,MeanDew PointF,Min DewpointF,Max Humidity, Mean Humidity, Min Humidity, Max Sea Level PressureIn, Mean Sea Level PressureIn, Min Sea Level PressureIn, Max VisibilityMiles, Mean VisibilityMiles, Min VisibilityMiles, Max Wind SpeedMPH, Mean Wind SpeedMPH, Max Gust SpeedMPH,PrecipitationIn, CloudCover, Events, WindDirDegrees
2013-4-1,71,61,51,55,47,41,94,65,35,30.08,30.00,29.89,10,9,1,14,4,17,0.00,2,,329
2013-4-2,64,54,44,43,34,27,87,51,30,30.22,30.16,30.08,10,10,10,15,6,17,0.00,1,,10
2013-4-3,55,50,44,43,33,25,87,57,38,30.19,30.15,30.11,10,10,5,15,9,17,0.24,4,,46
2013-4-4,46,44,42,45,42,39,93,88,81,30.12,30.02,29.97,10,7,3,18,11,22,0.84,8,,63
2013-4-5,66,54,42,45,40,36,93,68,37,30.12,30.05,29.98,10,10,4,14,6,23,0.02,4,,2
2013-4-6,73,54,35,43,38,34,93,57,25,30.19,30.12,30.05,10,10,10,12,2,23,0.00,0,,162
2013-4-7,75,58,42,48,44,37,87,60,36,30.18,30.10,30.03,10,10,10,13,3,22,0.00,1,,196
2013-4-8,78,63,48,55,51,45,93,63,39,30.13,30.07,30.03,10,10,10,12,2,18,0.00,3,,189
2013-4-9,84,68,53,57,53,48,94,62,35,30.19,30.09,30.03,10,10,10,16,2,23,0.00,1,,168
2013-4-10,84,68,51,57,54,48,94,61,37,30.10,30.01,29.89,10,10,8,13,3,18,0.00,1,,175
2013-4-11,77,70,62,64,59,55,94,74,57,29.91,29.78,29.60,10,9,4,16,6,24,1.95,5,Thunderstorm,176
2013-4-12,66,56,46,57,43,36,88,65,32,29.99,29.89,29.71,10,10,5,13,8,20,0.00,2,,302
2013-4-13,73,57,41,46,41,37,93,61,27,30.09,30.03,29.98,10,10,8,9,2,17,0.00,0,,344
2013-4-14,60,53,46,54,48,43,94,81,67,30.06,29.96,29.88,10,10,10,14,3,21,0.09,4,,96
2013-4-15,75,65,55,59,55,54,94,75,53,30.10,30.01,29.92,10,10,4,10,3,,0.00,5,,154
2013-4-16,82,70,57,64,61,55,94,73,51,30.21,30.15,30.10,10,10,10,10,2,,0.00,6,,153
2013-4-17,84,73,62,64,63,59,94,73,48,30.20,30.13,30.05,10,9,1,15,3,21,0.00,3,Thunderstorm,127
2013-4-18,82,70,57,63,57,54,94,64,39,30.06,29.96,29.79,10,9,0,15,4,26,0.00,1,,158
2013-4-19,73,58,42,64,45,34,88,73,51,30.15,29.95,29.73,10,10,7,18,11,26,1.27,5,,283
2013-4-20,62,48,33,39,34,28,93,61,29,30.27,30.22,30.16,10,10,5,12,3,22,0.00,0,,349
2013-4-21,71,53,35,43,39,34,93,61,31,30.33,30.27,30.20,10,10,3,15,3,24,0.00,0,,64
2013-4-22,71,58,46,48,44,39,82,62,38,30.30,30.21,30.12,10,10,10,17,5,20,0.00,1,,86
2013-4-23,75,62,48,52,46,37,88,61,37,30.21,30.13,30.05,10,10,10,10,3,16,0.00,2,,158
2013-4-24,68,59,50,61,53,43,94,83,68,30.24,30.11,30.05,10,10,4,13,3,17,0.23,6,,262
2013-4-25,66,52,39,43,38,34,87,61,30,30.36,30.31,30.23,10,10,10,12,7,17,0.00,2,,2
2013-4-26,77,57,37,50,40,34,93,57,24,30.38,30.31,30.23,10,10,10,10,2,,0.00,1,,58
2013-4-27,77,67,57,63,53,43,94,62,47,30.30,30.19,30.06,10,10,9,14,8,18,0.07,6,Thunderstorm,109
2013-4-28,69,63,57,63,58,55,94,87,77,30.09,30.01,29.95,10,9,3,12,4,16,1.09,6,Thunderstorm,202
2013-4-29,75,65,55,55,54,52,94,75,44,30.05,30.00,29.94,10,9,0,8,2,,0.03,4,,290
2013-4-30,80,64,48,59,53,46,94,68,37,30.06,30.01,29.96,10,9,0,9,2,,0.00,1,,100